sensor_id;sensor_type;location;lat;lon;timestamp;P1;durP1;ratioP1;P2;durP2;ratioP2
78581;SDS011;67878;46.242;5.974;2023-12-29T00:01:17;3.38;;;2.60;;
78581;SDS011;67878;46.242;5.974;2023-12-29T00:03:43;3.72;;;2.55;;
78581;SDS011;67878;46.242;5.974;2023-12-29T00:06:08;2.67;;;2.33;;
78581;SDS011;67878;46.242;5.974;2023-12-29T00:08:36;2.72;;;2.42;;
78581;SDS011;67878;46.242;5.974;2023-12-29T00:11:01;2.90;;;2.38;;
78581;SDS011;67878;46.242;5.974;2023-12-29T00:13:27;2.63;;;2.25;;
78581;SDS011;67878;46.242;5.974;2023-12-29T00:15:52;2.92;;;2.40;;
78581;SDS011;67878;46.242;5.974;2023-12-29T00:18:19;3.33;;;2.42;;
78581;SDS011;67878;46.242;5.974;2023-12-29T00:20:44;2.80;;;2.30;;
78581;SDS011;67878;46.242;5.974;2023-12-29T00:23:10;3.03;;;2.13;;
78581;SDS011;67878;46.242;5.974;2023-12-29T00:25:36;2.35;;;2.15;;
78581;SDS011;67878;46.242;5.974;2023-12-29T00:28:02;4.38;;;2.10;;
78581;SDS011;67878;46.242;5.974;2023-12-29T00:30:28;3.15;;;2.72;;
78581;SDS011;67878;46.242;5.974;2023-12-29T00:32:54;3.17;;;2.47;;
78581;SDS011;67878;46.242;5.974;2023-12-29T00:35:23;4.22;;;2.53;;
78581;SDS011;67878;46.242;5.974;2023-12-29T00:37:49;3.50;;;2.42;;
78581;SDS011;67878;46.242;5.974;2023-12-29T00:40:15;3.30;;;2.30;;
78581;SDS011;67878;46.242;5.974;2023-12-29T00:42:41;3.45;;;2.25;;
78581;SDS011;67878;46.242;5.974;2023-12-29T00:45:06;3.88;;;2.25;;
78581;SDS011;67878;46.242;5.974;2023-12-29T00:47:33;2.85;;;2.25;;
78581;SDS011;67878;46.242;5.974;2023-12-29T00:49:58;3.78;;;2.45;;
78581;SDS011;67878;46.242;5.974;2023-12-29T00:52:24;3.00;;;2.30;;
78581;SDS011;67878;46.242;5.974;2023-12-29T00:54:49;2.60;;;2.20;;
78581;SDS011;67878;46.242;5.974;2023-12-29T00:57:14;2.55;;;2.05;;
78581;SDS011;67878;46.242;5.974;2023-12-29T00:59:40;2.30;;;2.00;;
78581;SDS011;67878;46.242;5.974;2023-12-29T01:02:06;2.33;;;2.13;;
78581;SDS011;67878;46.242;5.974;2023-12-29T01:04:33;2.63;;;2.03;;
78581;SDS011;67878;46.242;5.974;2023-12-29T01:06:58;2.33;;;2.10;;
78581;SDS011;67878;46.242;5.974;2023-12-29T01:09:24;2.50;;;2.22;;
78581;SDS011;67878;46.242;5.974;2023-12-29T01:11:51;3.05;;;2.63;;
78581;SDS011;67878;46.242;5.974;2023-12-29T01:14:16;2.35;;;2.15;;
78581;SDS011;67878;46.242;5.974;2023-12-29T01:16:42;2.40;;;2.20;;
78581;SDS011;67878;46.242;5.974;2023-12-29T01:19:07;2.78;;;2.22;;
78581;SDS011;67878;46.242;5.974;2023-12-29T01:21:32;7.15;;;2.70;;
78581;SDS011;67878;46.242;5.974;2023-12-29T01:24:02;4.18;;;2.60;;
78581;SDS011;67878;46.242;5.974;2023-12-29T01:26:29;2.92;;;2.20;;
78581;SDS011;67878;46.242;5.974;2023-12-29T01:28:55;6.60;;;2.70;;
78581;SDS011;67878;46.242;5.974;2023-12-29T01:31:20;6.25;;;2.42;;
78581;SDS011;67878;46.242;5.974;2023-12-29T01:33:45;4.75;;;2.50;;
78581;SDS011;67878;46.242;5.974;2023-12-29T01:36:16;4.03;;;2.53;;
78581;SDS011;67878;46.242;5.974;2023-12-29T01:38:43;4.57;;;2.78;;
78581;SDS011;67878;46.242;5.974;2023-12-29T01:41:09;6.15;;;2.72;;
78581;SDS011;67878;46.242;5.974;2023-12-29T01:43:34;5.43;;;2.42;;
78581;SDS011;67878;46.242;5.974;2023-12-29T01:45:59;4.95;;;2.42;;
78581;SDS011;67878;46.242;5.974;2023-12-29T01:48:25;6.63;;;2.55;;
78581;SDS011;67878;46.242;5.974;2023-12-29T01:50:51;3.33;;;2.10;;
78581;SDS011;67878;46.242;5.974;2023-12-29T01:53:18;2.80;;;2.08;;
78581;SDS011;67878;46.242;5.974;2023-12-29T01:55:44;2.72;;;2.10;;
78581;SDS011;67878;46.242;5.974;2023-12-29T01:58:10;2.88;;;1.92;;
78581;SDS011;67878;46.242;5.974;2023-12-29T02:00:36;5.38;;;2.47;;
78581;SDS011;67878;46.242;5.974;2023-12-29T02:03:01;3.97;;;2.15;;
78581;SDS011;67878;46.242;5.974;2023-12-29T02:05:27;5.25;;;2.40;;
78581;SDS011;67878;46.242;5.974;2023-12-29T02:07:56;3.53;;;2.03;;
78581;SDS011;67878;46.242;5.974;2023-12-29T02:10:21;4.30;;;2.03;;
78581;SDS011;67878;46.242;5.974;2023-12-29T02:12:48;3.75;;;2.08;;
78581;SDS011;67878;46.242;5.974;2023-12-29T02:15:14;3.88;;;2.38;;
78581;SDS011;67878;46.242;5.974;2023-12-29T02:17:41;3.80;;;2.30;;
78581;SDS011;67878;46.242;5.974;2023-12-29T02:20:11;3.65;;;2.40;;
78581;SDS011;67878;46.242;5.974;2023-12-29T02:22:36;4.78;;;2.25;;
78581;SDS011;67878;46.242;5.974;2023-12-29T02:25:02;2.70;;;2.28;;
78581;SDS011;67878;46.242;5.974;2023-12-29T02:27:45;2.55;;;2.13;;
78581;SDS011;67878;46.242;5.974;2023-12-29T02:33:10;2.47;;;2.05;;
78581;SDS011;67878;46.242;5.974;2023-12-29T02:35:39;2.60;;;2.28;;
78581;SDS011;67878;46.242;5.974;2023-12-29T02:38:08;3.08;;;2.00;;
78581;SDS011;67878;46.242;5.974;2023-12-29T02:40:34;3.03;;;2.15;;
78581;SDS011;67878;46.242;5.974;2023-12-29T02:43:00;2.45;;;2.03;;
78581;SDS011;67878;46.242;5.974;2023-12-29T02:45:25;3.30;;;2.08;;
78581;SDS011;67878;46.242;5.974;2023-12-29T02:47:51;2.63;;;2.00;;
78581;SDS011;67878;46.242;5.974;2023-12-29T02:50:16;2.85;;;1.83;;
78581;SDS011;67878;46.242;5.974;2023-12-29T02:52:42;2.40;;;2.08;;
78581;SDS011;67878;46.242;5.974;2023-12-29T02:55:07;3.40;;;2.15;;
78581;SDS011;67878;46.242;5.974;2023-12-29T02:57:33;2.47;;;1.75;;
78581;SDS011;67878;46.242;5.974;2023-12-29T02:59:58;2.70;;;2.10;;
78581;SDS011;67878;46.242;5.974;2023-12-29T03:02:24;4.50;;;2.03;;
78581;SDS011;67878;46.242;5.974;2023-12-29T03:04:49;3.40;;;1.73;;
78581;SDS011;67878;46.242;5.974;2023-12-29T03:07:15;3.70;;;2.03;;
78581;SDS011;67878;46.242;5.974;2023-12-29T03:09:40;2.47;;;2.20;;
78581;SDS011;67878;46.242;5.974;2023-12-29T03:12:06;2.40;;;1.88;;
78581;SDS011;67878;46.242;5.974;2023-12-29T03:14:31;2.55;;;1.92;;
78581;SDS011;67878;46.242;5.974;2023-12-29T03:16:57;2.00;;;1.80;;
78581;SDS011;67878;46.242;5.974;2023-12-29T03:19:23;2.53;;;2.03;;
78581;SDS011;67878;46.242;5.974;2023-12-29T03:21:49;2.75;;;2.10;;
78581;SDS011;67878;46.242;5.974;2023-12-29T03:24:14;2.10;;;1.90;;
78581;SDS011;67878;46.242;5.974;2023-12-29T03:26:40;2.30;;;1.90;;
78581;SDS011;67878;46.242;5.974;2023-12-29T03:29:06;3.38;;;2.00;;
78581;SDS011;67878;46.242;5.974;2023-12-29T03:31:31;3.05;;;1.90;;
78581;SDS011;67878;46.242;5.974;2023-12-29T03:33:56;2.17;;;1.75;;
78581;SDS011;67878;46.242;5.974;2023-12-29T03:36:22;2.70;;;1.98;;
78581;SDS011;67878;46.242;5.974;2023-12-29T03:38:47;2.45;;;1.90;;
78581;SDS011;67878;46.242;5.974;2023-12-29T03:41:13;2.22;;;2.00;;
78581;SDS011;67878;46.242;5.974;2023-12-29T03:43:38;2.40;;;2.00;;
78581;SDS011;67878;46.242;5.974;2023-12-29T03:46:14;2.80;;;1.90;;
78581;SDS011;67878;46.242;5.974;2023-12-29T03:48:41;2.40;;;1.98;;
78581;SDS011;67878;46.242;5.974;2023-12-29T03:51:06;1.88;;;1.63;;
78581;SDS011;67878;46.242;5.974;2023-12-29T03:53:31;2.70;;;2.00;;
78581;SDS011;67878;46.242;5.974;2023-12-29T03:55:57;2.78;;;1.75;;
78581;SDS011;67878;46.242;5.974;2023-12-29T03:58:22;2.50;;;1.90;;
78581;SDS011;67878;46.242;5.974;2023-12-29T04:00:48;3.10;;;2.05;;
78581;SDS011;67878;46.242;5.974;2023-12-29T04:03:13;2.17;;;1.80;;
78581;SDS011;67878;46.242;5.974;2023-12-29T04:05:39;3.20;;;1.98;;
78581;SDS011;67878;46.242;5.974;2023-12-29T04:08:05;2.97;;;2.17;;
78581;SDS011;67878;46.242;5.974;2023-12-29T04:10:30;2.08;;;1.73;;
78581;SDS011;67878;46.242;5.974;2023-12-29T04:12:56;2.55;;;2.08;;
78581;SDS011;67878;46.242;5.974;2023-12-29T04:15:21;2.05;;;1.85;;
78581;SDS011;67878;46.242;5.974;2023-12-29T04:17:47;2.45;;;2.03;;
78581;SDS011;67878;46.242;5.974;2023-12-29T04:20:12;2.17;;;1.98;;
78581;SDS011;67878;46.242;5.974;2023-12-29T04:22:37;3.45;;;2.10;;
78581;SDS011;67878;46.242;5.974;2023-12-29T04:25:03;2.13;;;1.92;;
78581;SDS011;67878;46.242;5.974;2023-12-29T04:27:29;2.75;;;1.77;;
78581;SDS011;67878;46.242;5.974;2023-12-29T04:29:54;2.40;;;2.00;;
78581;SDS011;67878;46.242;5.974;2023-12-29T04:32:19;2.15;;;1.95;;
78581;SDS011;67878;46.242;5.974;2023-12-29T04:34:45;3.47;;;2.13;;
78581;SDS011;67878;46.242;5.974;2023-12-29T04:37:10;2.58;;;1.67;;
78581;SDS011;67878;46.242;5.974;2023-12-29T04:39:37;1.77;;;1.63;;
78581;SDS011;67878;46.242;5.974;2023-12-29T04:42:02;2.47;;;2.20;;
78581;SDS011;67878;46.242;5.974;2023-12-29T04:44:28;2.38;;;1.92;;
78581;SDS011;67878;46.242;5.974;2023-12-29T04:46:53;2.22;;;1.80;;
78581;SDS011;67878;46.242;5.974;2023-12-29T04:49:18;2.85;;;2.15;;
78581;SDS011;67878;46.242;5.974;2023-12-29T04:51:44;2.33;;;2.10;;
78581;SDS011;67878;46.242;5.974;2023-12-29T04:54:09;1.85;;;1.65;;
78581;SDS011;67878;46.242;5.974;2023-12-29T04:56:35;1.95;;;1.75;;
78581;SDS011;67878;46.242;5.974;2023-12-29T04:59:00;2.00;;;1.67;;
78581;SDS011;67878;46.242;5.974;2023-12-29T05:01:25;2.10;;;1.90;;
78581;SDS011;67878;46.242;5.974;2023-12-29T05:03:51;2.75;;;1.75;;
78581;SDS011;67878;46.242;5.974;2023-12-29T05:06:16;2.10;;;1.83;;
78581;SDS011;67878;46.242;5.974;2023-12-29T05:08:42;2.50;;;1.80;;
78581;SDS011;67878;46.242;5.974;2023-12-29T05:11:07;2.05;;;1.85;;
78581;SDS011;67878;46.242;5.974;2023-12-29T05:13:33;1.88;;;1.60;;
78581;SDS011;67878;46.242;5.974;2023-12-29T05:15:58;2.10;;;1.73;;
78581;SDS011;67878;46.242;5.974;2023-12-29T05:18:23;2.20;;;1.70;;
78581;SDS011;67878;46.242;5.974;2023-12-29T05:20:49;2.33;;;1.80;;
78581;SDS011;67878;46.242;5.974;2023-12-29T05:23:14;1.80;;;1.55;;
78581;SDS011;67878;46.242;5.974;2023-12-29T05:25:40;3.05;;;1.60;;
78581;SDS011;67878;46.242;5.974;2023-12-29T05:28:05;2.00;;;1.80;;
78581;SDS011;67878;46.242;5.974;2023-12-29T05:30:30;2.63;;;1.83;;
78581;SDS011;67878;46.242;5.974;2023-12-29T05:32:57;2.03;;;1.70;;
78581;SDS011;67878;46.242;5.974;2023-12-29T05:35:22;2.58;;;1.83;;
78581;SDS011;67878;46.242;5.974;2023-12-29T05:37:48;3.63;;;1.92;;
78581;SDS011;67878;46.242;5.974;2023-12-29T05:40:16;3.35;;;2.00;;
78581;SDS011;67878;46.242;5.974;2023-12-29T05:42:44;2.88;;;1.63;;
78581;SDS011;67878;46.242;5.974;2023-12-29T05:45:09;2.85;;;1.80;;
78581;SDS011;67878;46.242;5.974;2023-12-29T05:47:35;2.30;;;1.70;;
78581;SDS011;67878;46.242;5.974;2023-12-29T05:50:00;3.05;;;2.00;;
78581;SDS011;67878;46.242;5.974;2023-12-29T05:52:25;2.97;;;1.58;;
78581;SDS011;67878;46.242;5.974;2023-12-29T05:54:51;8.57;;;2.03;;
78581;SDS011;67878;46.242;5.974;2023-12-29T05:57:16;2.92;;;1.70;;
78581;SDS011;67878;46.242;5.974;2023-12-29T05:59:42;2.10;;;1.77;;
78581;SDS011;67878;46.242;5.974;2023-12-29T06:02:07;2.78;;;1.90;;
78581;SDS011;67878;46.242;5.974;2023-12-29T06:04:32;3.85;;;1.80;;
78581;SDS011;67878;46.242;5.974;2023-12-29T06:06:58;3.45;;;1.90;;
78581;SDS011;67878;46.242;5.974;2023-12-29T06:09:23;2.58;;;1.75;;
78581;SDS011;67878;46.242;5.974;2023-12-29T06:11:49;2.80;;;1.73;;
78581;SDS011;67878;46.242;5.974;2023-12-29T06:14:15;5.75;;;1.90;;
78581;SDS011;67878;46.242;5.974;2023-12-29T06:16:40;2.17;;;1.80;;
78581;SDS011;67878;46.242;5.974;2023-12-29T06:19:05;2.30;;;1.92;;
78581;SDS011;67878;46.242;5.974;2023-12-29T06:21:31;2.17;;;1.65;;
78581;SDS011;67878;46.242;5.974;2023-12-29T06:23:56;2.47;;;1.60;;
78581;SDS011;67878;46.242;5.974;2023-12-29T06:26:22;3.70;;;1.90;;
78581;SDS011;67878;46.242;5.974;2023-12-29T06:28:48;2.33;;;1.73;;
78581;SDS011;67878;46.242;5.974;2023-12-29T06:31:13;2.38;;;2.00;;
78581;SDS011;67878;46.242;5.974;2023-12-29T06:33:42;1.90;;;1.75;;
78581;SDS011;67878;46.242;5.974;2023-12-29T06:36:08;2.00;;;1.80;;
78581;SDS011;67878;46.242;5.974;2023-12-29T06:38:35;2.20;;;1.95;;
78581;SDS011;67878;46.242;5.974;2023-12-29T06:41:03;2.13;;;1.90;;
78581;SDS011;67878;46.242;5.974;2023-12-29T06:43:30;2.72;;;1.80;;
78581;SDS011;67878;46.242;5.974;2023-12-29T06:45:55;4.65;;;2.20;;
78581;SDS011;67878;46.242;5.974;2023-12-29T06:48:21;1.92;;;1.73;;
78581;SDS011;67878;46.242;5.974;2023-12-29T06:50:46;1.80;;;1.70;;
78581;SDS011;67878;46.242;5.974;2023-12-29T06:53:12;2.45;;;1.88;;
78581;SDS011;67878;46.242;5.974;2023-12-29T06:55:37;2.78;;;1.67;;
78581;SDS011;67878;46.242;5.974;2023-12-29T06:58:04;2.13;;;1.73;;
78581;SDS011;67878;46.242;5.974;2023-12-29T07:00:29;2.53;;;1.90;;
78581;SDS011;67878;46.242;5.974;2023-12-29T07:02:55;2.60;;;1.92;;
78581;SDS011;67878;46.242;5.974;2023-12-29T07:05:21;2.30;;;1.90;;
78581;SDS011;67878;46.242;5.974;2023-12-29T07:07:46;1.75;;;1.65;;
78581;SDS011;67878;46.242;5.974;2023-12-29T07:10:12;2.17;;;1.77;;
78581;SDS011;67878;46.242;5.974;2023-12-29T07:12:38;2.10;;;1.60;;
78581;SDS011;67878;46.242;5.974;2023-12-29T07:15:05;3.53;;;1.52;;
78581;SDS011;67878;46.242;5.974;2023-12-29T07:17:32;1.70;;;1.60;;
78581;SDS011;67878;46.242;5.974;2023-12-29T07:20:01;1.77;;;1.58;;
78581;SDS011;67878;46.242;5.974;2023-12-29T07:22:26;3.67;;;1.98;;
78581;SDS011;67878;46.242;5.974;2023-12-29T07:24:52;2.67;;;1.75;;
78581;SDS011;67878;46.242;5.974;2023-12-29T07:27:18;2.17;;;1.73;;
78581;SDS011;67878;46.242;5.974;2023-12-29T07:29:43;3.53;;;1.85;;
78581;SDS011;67878;46.242;5.974;2023-12-29T07:32:09;1.65;;;1.55;;
78581;SDS011;67878;46.242;5.974;2023-12-29T07:34:34;1.70;;;1.60;;
78581;SDS011;67878;46.242;5.974;2023-12-29T07:36:59;2.03;;;1.70;;
78581;SDS011;67878;46.242;5.974;2023-12-29T07:39:25;2.17;;;1.70;;
78581;SDS011;67878;46.242;5.974;2023-12-29T07:41:50;4.13;;;2.17;;
78581;SDS011;67878;46.242;5.974;2023-12-29T07:44:16;2.90;;;1.70;;
78581;SDS011;67878;46.242;5.974;2023-12-29T07:46:42;4.63;;;2.20;;
78581;SDS011;67878;46.242;5.974;2023-12-29T07:49:09;3.55;;;2.00;;
78581;SDS011;67878;46.242;5.974;2023-12-29T07:51:38;3.22;;;2.08;;
78581;SDS011;67878;46.242;5.974;2023-12-29T07:54:05;7.82;;;2.10;;
78581;SDS011;67878;46.242;5.974;2023-12-29T07:56:31;3.83;;;1.63;;
78581;SDS011;67878;46.242;5.974;2023-12-29T07:58:57;7.35;;;1.98;;
78581;SDS011;67878;46.242;5.974;2023-12-29T08:01:22;3.97;;;2.03;;
78581;SDS011;67878;46.242;5.974;2023-12-29T08:03:47;3.30;;;1.92;;
78581;SDS011;67878;46.242;5.974;2023-12-29T08:06:13;3.03;;;1.85;;
78581;SDS011;67878;46.242;5.974;2023-12-29T08:08:38;4.30;;;1.90;;
78581;SDS011;67878;46.242;5.974;2023-12-29T08:11:04;3.17;;;1.80;;
78581;SDS011;67878;46.242;5.974;2023-12-29T08:13:33;3.05;;;1.80;;
78581;SDS011;67878;46.242;5.974;2023-12-29T08:15:58;5.13;;;1.80;;
78581;SDS011;67878;46.242;5.974;2023-12-29T08:18:24;2.20;;;1.70;;
78581;SDS011;67878;46.242;5.974;2023-12-29T08:20:49;2.53;;;1.90;;
78581;SDS011;67878;46.242;5.974;2023-12-29T08:23:15;2.75;;;1.92;;
78581;SDS011;67878;46.242;5.974;2023-12-29T08:25:40;4.60;;;2.17;;
78581;SDS011;67878;46.242;5.974;2023-12-29T08:28:06;2.08;;;1.75;;
78581;SDS011;67878;46.242;5.974;2023-12-29T08:30:34;5.40;;;2.00;;
78581;SDS011;67878;46.242;5.974;2023-12-29T08:33:00;11.30;;;2.10;;
78581;SDS011;67878;46.242;5.974;2023-12-29T08:35:26;5.80;;;2.00;;
78581;SDS011;67878;46.242;5.974;2023-12-29T08:37:52;6.07;;;2.08;;
78581;SDS011;67878;46.242;5.974;2023-12-29T08:40:17;5.20;;;2.15;;
78581;SDS011;67878;46.242;5.974;2023-12-29T08:42:42;3.03;;;1.88;;
78581;SDS011;67878;46.242;5.974;2023-12-29T08:45:08;3.90;;;2.10;;
78581;SDS011;67878;46.242;5.974;2023-12-29T08:47:35;2.58;;;1.83;;
78581;SDS011;67878;46.242;5.974;2023-12-29T08:50:02;4.70;;;1.58;;
78581;SDS011;67878;46.242;5.974;2023-12-29T08:52:29;2.97;;;1.85;;
78581;SDS011;67878;46.242;5.974;2023-12-29T08:54:54;2.30;;;1.83;;
78581;SDS011;67878;46.242;5.974;2023-12-29T08:57:20;3.25;;;1.80;;
78581;SDS011;67878;46.242;5.974;2023-12-29T08:59:45;2.28;;;1.90;;
78581;SDS011;67878;46.242;5.974;2023-12-29T09:02:10;2.08;;;1.88;;
78581;SDS011;67878;46.242;5.974;2023-12-29T09:04:37;2.15;;;1.73;;
78581;SDS011;67878;46.242;5.974;2023-12-29T09:07:03;2.53;;;2.10;;
78581;SDS011;67878;46.242;5.974;2023-12-29T09:09:30;6.00;;;2.17;;
78581;SDS011;67878;46.242;5.974;2023-12-29T09:11:56;2.92;;;1.77;;
78581;SDS011;67878;46.242;5.974;2023-12-29T09:14:21;2.50;;;1.77;;
78581;SDS011;67878;46.242;5.974;2023-12-29T09:16:47;2.65;;;2.22;;
78581;SDS011;67878;46.242;5.974;2023-12-29T09:19:12;2.40;;;2.10;;
78581;SDS011;67878;46.242;5.974;2023-12-29T09:21:38;2.03;;;1.77;;
78581;SDS011;67878;46.242;5.974;2023-12-29T09:24:03;2.63;;;1.63;;
78581;SDS011;67878;46.242;5.974;2023-12-29T09:26:29;1.95;;;1.75;;
78581;SDS011;67878;46.242;5.974;2023-12-29T09:28:55;3.03;;;1.80;;
78581;SDS011;67878;46.242;5.974;2023-12-29T09:31:20;2.45;;;1.90;;
78581;SDS011;67878;46.242;5.974;2023-12-29T09:33:45;3.55;;;1.90;;
78581;SDS011;67878;46.242;5.974;2023-12-29T09:36:11;2.63;;;1.70;;
78581;SDS011;67878;46.242;5.974;2023-12-29T09:38:36;2.40;;;1.80;;
78581;SDS011;67878;46.242;5.974;2023-12-29T09:41:07;3.05;;;1.88;;
78581;SDS011;67878;46.242;5.974;2023-12-29T09:43:36;2.10;;;1.90;;
78581;SDS011;67878;46.242;5.974;2023-12-29T09:46:03;4.05;;;2.00;;
78581;SDS011;67878;46.242;5.974;2023-12-29T09:48:31;2.38;;;2.17;;
78581;SDS011;67878;46.242;5.974;2023-12-29T09:50:58;2.40;;;2.20;;
78581;SDS011;67878;46.242;5.974;2023-12-29T09:53:23;2.67;;;2.15;;
78581;SDS011;67878;46.242;5.974;2023-12-29T09:55:51;3.88;;;2.75;;
78581;SDS011;67878;46.242;5.974;2023-12-29T09:58:18;3.72;;;2.08;;
78581;SDS011;67878;46.242;5.974;2023-12-29T10:00:46;3.00;;;2.22;;
78581;SDS011;67878;46.242;5.974;2023-12-29T10:03:14;3.03;;;2.20;;
78581;SDS011;67878;46.242;5.974;2023-12-29T10:05:40;3.63;;;2.00;;
78581;SDS011;67878;46.242;5.974;2023-12-29T10:08:05;3.30;;;1.95;;
78581;SDS011;67878;46.242;5.974;2023-12-29T10:10:35;2.83;;;1.90;;
78581;SDS011;67878;46.242;5.974;2023-12-29T10:18:18;3.03;;;2.20;;
78581;SDS011;67878;46.242;5.974;2023-12-29T10:20:53;2.30;;;2.00;;
78581;SDS011;67878;46.242;5.974;2023-12-29T10:23:42;3.10;;;1.92;;
78581;SDS011;67878;46.242;5.974;2023-12-29T10:26:12;1.90;;;1.50;;
78581;SDS011;67878;46.242;5.974;2023-12-29T10:28:38;2.75;;;2.25;;
78581;SDS011;67878;46.242;5.974;2023-12-29T10:31:04;3.22;;;1.95;;
78581;SDS011;67878;46.242;5.974;2023-12-29T10:33:30;3.65;;;2.00;;
78581;SDS011;67878;46.242;5.974;2023-12-29T10:35:57;3.10;;;2.00;;
78581;SDS011;67878;46.242;5.974;2023-12-29T10:38:27;2.97;;;1.95;;
78581;SDS011;67878;46.242;5.974;2023-12-29T10:40:53;3.25;;;1.90;;
78581;SDS011;67878;46.242;5.974;2023-12-29T10:43:24;2.88;;;2.10;;
78581;SDS011;67878;46.242;5.974;2023-12-29T10:45:51;4.72;;;2.10;;
78581;SDS011;67878;46.242;5.974;2023-12-29T10:48:32;2.33;;;2.00;;
78581;SDS011;67878;46.242;5.974;2023-12-29T10:51:04;2.05;;;1.85;;
78581;SDS011;67878;46.242;5.974;2023-12-29T10:53:31;3.13;;;2.03;;
78581;SDS011;67878;46.242;5.974;2023-12-29T10:55:57;2.63;;;1.90;;
78581;SDS011;67878;46.242;5.974;2023-12-29T10:58:29;3.13;;;1.75;;
78581;SDS011;67878;46.242;5.974;2023-12-29T11:00:57;3.45;;;2.25;;
78581;SDS011;67878;46.242;5.974;2023-12-29T11:03:23;2.88;;;1.90;;
78581;SDS011;67878;46.242;5.974;2023-12-29T11:05:50;3.35;;;1.60;;
78581;SDS011;67878;46.242;5.974;2023-12-29T11:08:28;2.83;;;1.73;;
78581;SDS011;67878;46.242;5.974;2023-12-29T11:10:53;2.90;;;1.85;;
78581;SDS011;67878;46.242;5.974;2023-12-29T11:13:20;3.42;;;2.00;;
78581;SDS011;67878;46.242;5.974;2023-12-29T11:15:46;3.67;;;2.00;;
78581;SDS011;67878;46.242;5.974;2023-12-29T11:18:13;2.30;;;2.00;;
78581;SDS011;67878;46.242;5.974;2023-12-29T11:20:40;2.83;;;2.10;;
78581;SDS011;67878;46.242;5.974;2023-12-29T11:23:06;4.32;;;2.20;;
78581;SDS011;67878;46.242;5.974;2023-12-29T11:25:34;2.28;;;2.00;;
78581;SDS011;67878;46.242;5.974;2023-12-29T11:28:00;2.45;;;2.00;;
78581;SDS011;67878;46.242;5.974;2023-12-29T11:30:27;2.53;;;2.05;;
78581;SDS011;67878;46.242;5.974;2023-12-29T11:33:03;2.30;;;2.10;;
78581;SDS011;67878;46.242;5.974;2023-12-29T11:35:37;2.35;;;2.03;;
78581;SDS011;67878;46.242;5.974;2023-12-29T11:43:38;3.08;;;2.28;;
78581;SDS011;67878;46.242;5.974;2023-12-29T11:46:04;3.85;;;1.95;;
78581;SDS011;67878;46.242;5.974;2023-12-29T11:54:09;3.10;;;2.40;;
78581;SDS011;67878;46.242;5.974;2023-12-29T11:56:38;2.50;;;2.10;;
78581;SDS011;67878;46.242;5.974;2023-12-29T11:59:21;3.28;;;2.28;;
78581;SDS011;67878;46.242;5.974;2023-12-29T12:01:49;2.83;;;2.28;;
78581;SDS011;67878;46.242;5.974;2023-12-29T12:09:39;5.30;;;2.30;;
78581;SDS011;67878;46.242;5.974;2023-12-29T12:12:04;3.08;;;2.20;;
78581;SDS011;67878;46.242;5.974;2023-12-29T12:17:28;3.20;;;2.47;;
78581;SDS011;67878;46.242;5.974;2023-12-29T12:20:06;3.47;;;2.42;;
78581;SDS011;67878;46.242;5.974;2023-12-29T12:22:34;4.50;;;2.67;;
78581;SDS011;67878;46.242;5.974;2023-12-29T12:25:00;3.53;;;2.33;;
78581;SDS011;67878;46.242;5.974;2023-12-29T12:27:26;3.50;;;2.45;;
78581;SDS011;67878;46.242;5.974;2023-12-29T12:29:53;2.92;;;2.53;;
78581;SDS011;67878;46.242;5.974;2023-12-29T12:32:26;3.80;;;2.72;;
78581;SDS011;67878;46.242;5.974;2023-12-29T12:34:53;3.28;;;2.55;;
78581;SDS011;67878;46.242;5.974;2023-12-29T12:37:28;4.25;;;2.80;;
78581;SDS011;67878;46.242;5.974;2023-12-29T12:39:54;3.83;;;2.63;;
78581;SDS011;67878;46.242;5.974;2023-12-29T12:42:20;3.63;;;2.92;;
78581;SDS011;67878;46.242;5.974;2023-12-29T12:44:53;4.05;;;2.90;;
78581;SDS011;67878;46.242;5.974;2023-12-29T12:47:30;3.60;;;2.80;;
78581;SDS011;67878;46.242;5.974;2023-12-29T12:49:59;3.00;;;2.40;;
78581;SDS011;67878;46.242;5.974;2023-12-29T12:52:29;3.53;;;3.00;;
78581;SDS011;67878;46.242;5.974;2023-12-29T12:54:56;4.28;;;3.13;;
78581;SDS011;67878;46.242;5.974;2023-12-29T12:57:21;3.95;;;2.75;;
78581;SDS011;67878;46.242;5.974;2023-12-29T12:59:47;3.80;;;2.95;;
78581;SDS011;67878;46.242;5.974;2023-12-29T13:02:15;4.90;;;3.40;;
78581;SDS011;67878;46.242;5.974;2023-12-29T13:04:42;7.47;;;3.90;;
78581;SDS011;67878;46.242;5.974;2023-12-29T13:07:08;7.03;;;4.18;;
78581;SDS011;67878;46.242;5.974;2023-12-29T13:09:35;6.50;;;4.13;;
78581;SDS011;67878;46.242;5.974;2023-12-29T13:12:11;9.55;;;4.22;;
78581;SDS011;67878;46.242;5.974;2023-12-29T13:14:38;8.23;;;3.90;;
78581;SDS011;67878;46.242;5.974;2023-12-29T13:17:11;10.60;;;4.05;;
78581;SDS011;67878;46.242;5.974;2023-12-29T13:19:42;9.32;;;4.20;;
78581;SDS011;67878;46.242;5.974;2023-12-29T13:22:09;9.70;;;4.32;;
78581;SDS011;67878;46.242;5.974;2023-12-29T13:24:42;8.45;;;4.25;;
78581;SDS011;67878;46.242;5.974;2023-12-29T13:27:11;8.77;;;4.70;;
78581;SDS011;67878;46.242;5.974;2023-12-29T13:29:37;9.32;;;4.65;;
78581;SDS011;67878;46.242;5.974;2023-12-29T13:34:54;8.57;;;4.13;;
78581;SDS011;67878;46.242;5.974;2023-12-29T13:38:08;6.88;;;3.83;;
78581;SDS011;67878;46.242;5.974;2023-12-29T13:40:44;9.73;;;4.00;;
78581;SDS011;67878;46.242;5.974;2023-12-29T13:43:18;10.55;;;4.50;;
78581;SDS011;67878;46.242;5.974;2023-12-29T13:45:46;9.40;;;3.90;;
78581;SDS011;67878;46.242;5.974;2023-12-29T13:48:13;7.90;;;4.10;;
78581;SDS011;67878;46.242;5.974;2023-12-29T13:50:39;7.28;;;3.63;;
78581;SDS011;67878;46.242;5.974;2023-12-29T13:53:09;9.75;;;4.10;;
78581;SDS011;67878;46.242;5.974;2023-12-29T13:58:09;6.97;;;4.53;;
78581;SDS011;67878;46.242;5.974;2023-12-29T14:00:36;6.15;;;3.75;;
78581;SDS011;67878;46.242;5.974;2023-12-29T14:03:10;9.00;;;4.40;;
78581;SDS011;67878;46.242;5.974;2023-12-29T14:05:55;5.55;;;3.40;;
78581;SDS011;67878;46.242;5.974;2023-12-29T14:08:25;7.95;;;3.88;;
78581;SDS011;67878;46.242;5.974;2023-12-29T14:10:52;7.57;;;3.42;;
78581;SDS011;67878;46.242;5.974;2023-12-29T14:13:18;5.93;;;3.63;;
78581;SDS011;67878;46.242;5.974;2023-12-29T14:15:45;8.02;;;3.90;;
78581;SDS011;67878;46.242;5.974;2023-12-29T14:20:48;8.02;;;3.67;;
78581;SDS011;67878;46.242;5.974;2023-12-29T14:23:13;7.07;;;3.40;;
78581;SDS011;67878;46.242;5.974;2023-12-29T14:25:38;7.13;;;3.95;;
78581;SDS011;67878;46.242;5.974;2023-12-29T14:28:13;5.80;;;3.20;;
78581;SDS011;67878;46.242;5.974;2023-12-29T14:30:40;8.05;;;3.92;;
78581;SDS011;67878;46.242;5.974;2023-12-29T14:33:05;6.75;;;3.42;;
78581;SDS011;67878;46.242;5.974;2023-12-29T14:35:31;6.18;;;3.35;;
78581;SDS011;67878;46.242;5.974;2023-12-29T14:37:57;7.35;;;3.53;;
78581;SDS011;67878;46.242;5.974;2023-12-29T14:40:23;5.03;;;3.08;;
78581;SDS011;67878;46.242;5.974;2023-12-29T14:42:48;10.23;;;4.00;;
78581;SDS011;67878;46.242;5.974;2023-12-29T14:45:13;7.70;;;3.30;;
78581;SDS011;67878;46.242;5.974;2023-12-29T14:47:39;7.68;;;3.85;;
78581;SDS011;67878;46.242;5.974;2023-12-29T14:50:05;6.53;;;3.35;;
78581;SDS011;67878;46.242;5.974;2023-12-29T14:52:31;6.70;;;3.38;;
78581;SDS011;67878;46.242;5.974;2023-12-29T14:54:57;6.63;;;3.42;;
78581;SDS011;67878;46.242;5.974;2023-12-29T14:57:22;7.75;;;3.55;;
78581;SDS011;67878;46.242;5.974;2023-12-29T14:59:48;8.43;;;3.53;;
78581;SDS011;67878;46.242;5.974;2023-12-29T15:02:14;13.90;;;5.50;;
78581;SDS011;67878;46.242;5.974;2023-12-29T15:04:39;17.95;;;7.18;;
78581;SDS011;67878;46.242;5.974;2023-12-29T15:07:05;15.98;;;7.45;;
78581;SDS011;67878;46.242;5.974;2023-12-29T15:09:30;18.13;;;7.45;;
78581;SDS011;67878;46.242;5.974;2023-12-29T15:11:56;17.92;;;7.68;;
78581;SDS011;67878;46.242;5.974;2023-12-29T15:14:22;58.88;;;26.58;;
78581;SDS011;67878;46.242;5.974;2023-12-29T15:16:48;49.13;;;21.13;;
78581;SDS011;67878;46.242;5.974;2023-12-29T15:19:14;57.33;;;23.08;;
78581;SDS011;67878;46.242;5.974;2023-12-29T15:21:40;56.28;;;21.08;;